createdAt,value
2022-08-26T00:02:07.150Z,15.40
2022-08-26T00:04:34.445Z,15.40
2022-08-26T00:07:05.273Z,15.40
2022-08-26T00:09:33.042Z,15.40
2022-08-26T00:12:08.735Z,15.40
2022-08-26T00:14:41.548Z,15.40
2022-08-26T00:17:14.671Z,15.40
2022-08-26T00:19:41.884Z,15.40
2022-08-26T00:22:20.305Z,15.30
2022-08-26T00:24:48.738Z,15.30
2022-08-26T00:27:15.785Z,15.30
2022-08-26T00:29:42.751Z,15.20
2022-08-26T00:32:09.808Z,15.20
2022-08-26T00:34:38.495Z,15.20
2022-08-26T00:37:15.684Z,15.20
2022-08-26T00:39:43.295Z,15.30
2022-08-26T00:42:13.034Z,15.40
2022-08-26T00:44:43.080Z,15.40
2022-08-26T00:47:31.310Z,15.30
2022-08-26T00:49:59.775Z,15.20
2022-08-26T00:52:30.576Z,15.30
2022-08-26T00:55:04.846Z,15.30
2022-08-26T00:57:32.547Z,15.20
2022-08-26T01:00:01.223Z,15.20
2022-08-26T01:02:28.885Z,15.20
2022-08-26T01:05:00.699Z,15.20
2022-08-26T01:07:31.316Z,15.20
2022-08-26T01:10:01.382Z,15.20
2022-08-26T01:12:31.888Z,15.20
2022-08-26T01:14:59.359Z,15.20
2022-08-26T01:17:33.712Z,15.20
2022-08-26T01:20:17.472Z,15.20
2022-08-26T01:23:03.215Z,15.20
2022-08-26T01:25:40.506Z,15.10
2022-08-26T01:28:37.283Z,15.00
2022-08-26T01:31:07.851Z,15.00
2022-08-26T01:34:04.732Z,14.90
2022-08-26T01:36:31.907Z,14.90
2022-08-26T01:39:07.272Z,14.90
2022-08-26T01:41:35.311Z,14.80
2022-08-26T01:44:04.870Z,14.80
2022-08-26T01:46:35.340Z,14.80
2022-08-26T01:49:06.431Z,14.70
2022-08-26T01:51:37.450Z,14.70
2022-08-26T01:54:06.805Z,14.70
2022-08-26T01:56:42.539Z,14.70
2022-08-26T01:59:13.035Z,14.70
2022-08-26T02:01:40.566Z,14.70
2022-08-26T02:04:13.862Z,14.70
2022-08-26T02:06:43.346Z,14.60
2022-08-26T02:09:11.544Z,14.60
2022-08-26T02:11:38.826Z,14.50
2022-08-26T02:14:12.891Z,14.50
2022-08-26T02:16:43.088Z,14.40
2022-08-26T02:19:21.273Z,14.40
2022-08-26T02:21:52.237Z,14.30
2022-08-26T02:24:49.071Z,14.30
2022-08-26T02:27:19.729Z,14.30
2022-08-26T02:29:51.215Z,14.30
2022-08-26T02:32:18.474Z,14.30
2022-08-26T02:34:46.546Z,14.30
2022-08-26T02:37:13.590Z,14.40
2022-08-26T02:39:46.875Z,14.40
2022-08-26T02:42:17.966Z,14.30
2022-08-26T02:44:44.972Z,14.30
2022-08-26T02:49:55.087Z,14.20
2022-08-26T02:52:22.889Z,14.20
2022-08-26T02:54:50.198Z,14.20
2022-08-26T02:57:22.213Z,14.20
2022-08-26T02:59:56.678Z,14.10
2022-08-26T03:02:23.853Z,14.10
2022-08-26T03:04:57.490Z,14.10
2022-08-26T03:07:25.290Z,14.10
2022-08-26T03:09:55.696Z,14.10
2022-08-26T03:12:22.507Z,14.00
2022-08-26T03:14:49.270Z,14.10
2022-08-26T03:17:19.336Z,14.10
2022-08-26T03:19:46.187Z,14.00
2022-08-26T03:22:16.190Z,14.00
2022-08-26T03:24:46.242Z,14.00
2022-08-26T03:30:15.325Z,13.90
2022-08-26T03:32:42.062Z,13.90
2022-08-26T03:35:09.217Z,13.90
2022-08-26T03:37:35.959Z,13.80
2022-08-26T03:40:06.049Z,13.70
2022-08-26T03:42:38.014Z,13.80
2022-08-26T03:45:07.278Z,13.70
2022-08-26T03:47:34.422Z,13.70
2022-08-26T03:50:01.547Z,13.80
2022-08-26T03:52:30.388Z,13.80
2022-08-26T03:55:00.468Z,13.90
2022-08-26T03:57:27.648Z,14.10
2022-08-26T03:59:54.718Z,14.10
2022-08-26T04:02:24.421Z,14.00
2022-08-26T04:04:52.421Z,13.90
2022-08-26T04:07:19.684Z,13.80
2022-08-26T04:09:49.759Z,13.80
2022-08-26T04:12:16.596Z,13.80
2022-08-26T04:14:43.306Z,13.80
2022-08-26T04:17:12.020Z,13.70
2022-08-26T04:19:39.063Z,13.80
2022-08-26T04:22:05.928Z,13.80
2022-08-26T04:24:33.045Z,14.00
2022-08-26T04:27:00.112Z,14.10
2022-08-26T04:29:30.275Z,14.00
2022-08-26T04:31:57.127Z,14.20
2022-08-26T04:34:29.013Z,14.10
2022-08-26T04:36:58.053Z,14.10
2022-08-26T04:39:25.340Z,14.10
2022-08-26T04:41:55.430Z,14.20
2022-08-26T04:44:25.510Z,14.20
2022-08-26T04:46:53.917Z,14.20
2022-08-26T04:49:22.402Z,14.10
2022-08-26T04:51:56.906Z,14.10
2022-08-26T04:54:25.202Z,14.00
2022-08-26T04:56:52.321Z,14.00
2022-08-26T04:59:19.198Z,14.10
2022-08-26T05:01:56.483Z,14.10
2022-08-26T05:04:23.439Z,14.20
2022-08-26T05:06:51.135Z,14.20
2022-08-26T05:09:22.094Z,14.10
2022-08-26T05:11:52.502Z,14.00
2022-08-26T05:14:25.968Z,14.10
2022-08-26T05:16:54.204Z,14.20
2022-08-26T05:19:21.070Z,14.30
2022-08-26T05:21:48.919Z,14.50
2022-08-26T05:24:16.219Z,14.70
2022-08-26T05:26:46.834Z,14.80
2022-08-26T05:29:19.479Z,15.00
2022-08-26T05:31:46.652Z,15.10
2022-08-26T05:34:14.351Z,15.00
2022-08-26T05:36:41.301Z,15.00
2022-08-26T05:39:11.301Z,15.20
2022-08-26T05:41:41.251Z,15.40
2022-08-26T05:44:12.745Z,15.50
2022-08-26T05:46:41.998Z,15.60
2022-08-26T05:49:15.889Z,15.80
2022-08-26T05:51:45.303Z,16.00
2022-08-26T05:54:21.287Z,16.20
2022-08-26T05:56:49.658Z,16.30
2022-08-26T05:59:16.776Z,16.50
2022-08-26T06:01:48.280Z,16.70
2022-08-26T06:04:15.197Z,16.80
2022-08-26T06:06:42.704Z,16.90
2022-08-26T06:09:11.299Z,17.10
2022-08-26T06:11:42.161Z,17.30
2022-08-26T06:14:14.063Z,17.50
2022-08-26T06:16:43.791Z,17.70
2022-08-26T06:19:15.945Z,18.00
2022-08-26T06:21:46.534Z,18.30
2022-08-26T06:24:32.969Z,18.50
2022-08-26T06:27:03.533Z,18.80
2022-08-26T06:29:40.079Z,19.10
2022-08-26T06:32:07.253Z,19.30
2022-08-26T06:34:39.033Z,19.50
2022-08-26T06:37:06.690Z,19.70
2022-08-26T06:39:34.179Z,19.80
2022-08-26T06:42:02.567Z,20.00
2022-08-26T06:44:30.145Z,20.20
2022-08-26T06:46:57.163Z,20.40
2022-08-26T06:49:26.839Z,20.60
2022-08-26T06:51:55.153Z,20.70
2022-08-26T06:54:24.824Z,20.80
2022-08-26T06:56:51.938Z,20.80
2022-08-26T06:59:22.438Z,20.90
2022-08-26T07:01:53.299Z,21.00
2022-08-26T07:04:22.368Z,21.00
2022-08-26T07:06:52.762Z,21.20
2022-08-26T07:09:23.839Z,21.30
2022-08-26T07:11:56.512Z,21.50
2022-08-26T07:14:25.226Z,21.70
2022-08-26T07:16:53.607Z,22.00
2022-08-26T07:19:28.541Z,22.40
2022-08-26T07:22:04.425Z,22.60
2022-08-26T07:24:42.467Z,23.00
2022-08-26T07:27:12.955Z,23.40
2022-08-26T07:29:46.217Z,23.70
2022-08-26T07:32:18.270Z,23.80
2022-08-26T07:34:45.665Z,23.90
2022-08-26T07:37:12.991Z,24.00
2022-08-26T07:39:43.173Z,24.00
2022-08-26T07:42:14.038Z,24.00
2022-08-26T07:44:41.349Z,24.10
2022-08-26T07:47:24.828Z,24.30
2022-08-26T07:49:59.092Z,24.50
2022-08-26T07:52:30.684Z,24.40
2022-08-26T07:55:07.796Z,24.30
2022-08-26T07:57:34.722Z,24.20
2022-08-26T08:00:07.552Z,24.10
2022-08-26T08:02:36.833Z,24.20
2022-08-26T08:05:04.316Z,24.30
2022-08-26T08:07:38.778Z,24.50
2022-08-26T08:10:21.198Z,24.60
2022-08-26T08:12:49.366Z,24.70
2022-08-26T08:15:18.616Z,24.70
2022-08-26T08:17:46.659Z,24.70
2022-08-26T08:20:17.678Z,25.00
2022-08-26T08:22:44.513Z,25.20
2022-08-26T08:25:12.926Z,25.10
2022-08-26T08:27:41.795Z,25.00
2022-08-26T08:30:09.606Z,25.00
2022-08-26T08:32:44.359Z,25.10
2022-08-26T08:35:14.948Z,25.30
2022-08-26T08:37:43.680Z,25.70
2022-08-26T08:40:19.259Z,25.90
2022-08-26T08:42:59.281Z,25.70
2022-08-26T08:45:39.955Z,25.50
2022-08-26T08:48:22.400Z,25.10
2022-08-26T08:51:03.153Z,25.10
2022-08-26T08:53:39.676Z,25.00
2022-08-26T08:56:29.082Z,25.00
2022-08-26T08:59:16.883Z,25.20
2022-08-26T09:02:14.788Z,25.60
2022-08-26T09:04:55.786Z,25.90
2022-08-26T09:07:49.201Z,26.00
2022-08-26T09:10:28.431Z,25.80
2022-08-26T09:12:55.800Z,25.50
2022-08-26T09:15:42.665Z,25.30
2022-08-26T09:18:37.196Z,25.00
2022-08-26T09:21:11.852Z,24.80
2022-08-26T09:23:46.996Z,24.80
2022-08-26T09:26:29.324Z,24.80
2022-08-26T09:29:03.996Z,24.70
2022-08-26T09:31:39.505Z,24.80
2022-08-26T09:34:30.378Z,25.10
2022-08-26T09:37:00.891Z,25.60
2022-08-26T09:39:37.673Z,26.00
2022-08-26T09:42:09.716Z,26.20
2022-08-26T09:44:52.176Z,26.50
2022-08-26T09:47:33.079Z,26.80
2022-08-26T09:50:19.933Z,26.80
2022-08-26T09:52:49.821Z,26.90
2022-08-26T09:55:24.066Z,27.20
2022-08-26T09:57:54.333Z,27.60
2022-08-26T10:00:30.335Z,27.60
2022-08-26T10:02:59.323Z,28.00
2022-08-26T10:05:46.406Z,27.90
2022-08-26T10:08:24.926Z,27.80
2022-08-26T10:10:53.363Z,27.40
2022-08-26T10:13:25.921Z,27.20
2022-08-26T10:16:00.039Z,27.00
2022-08-26T10:18:37.895Z,27.10
2022-08-26T10:21:10.387Z,27.30
2022-08-26T10:23:47.118Z,27.40
2022-08-26T10:26:40.178Z,27.50
2022-08-26T10:29:25.453Z,27.40
2022-08-26T10:32:02.487Z,27.30
2022-08-26T10:34:32.355Z,27.30
2022-08-26T10:37:15.671Z,27.10
2022-08-26T10:40:11.587Z,26.70
2022-08-26T10:42:54.078Z,26.30
2022-08-26T10:45:27.648Z,26.10
2022-08-26T10:47:58.304Z,26.10
2022-08-26T10:50:37.281Z,26.10
2022-08-26T10:53:29.393Z,26.00
2022-08-26T10:56:43.296Z,26.00
2022-08-26T10:59:28.896Z,26.20
2022-08-26T11:02:46.915Z,26.40
2022-08-26T11:05:23.770Z,26.40
2022-08-26T11:08:19.580Z,26.50
2022-08-26T11:11:03.607Z,26.50
2022-08-26T11:13:58.528Z,26.60
2022-08-26T11:16:45.034Z,26.60
2022-08-26T11:20:01.947Z,26.60
2022-08-26T11:26:01.405Z,26.80
2022-08-26T11:28:40.167Z,26.90
2022-08-26T11:31:26.359Z,26.80
2022-08-26T11:34:00.617Z,26.50
2022-08-26T11:36:45.474Z,26.10
2022-08-26T11:39:29.558Z,26.00
2022-08-26T11:42:21.248Z,25.90
2022-08-26T11:44:49.365Z,26.00
2022-08-26T11:47:26.765Z,25.90
2022-08-26T11:50:25.281Z,25.90
2022-08-26T11:53:01.788Z,25.90
2022-08-26T11:55:33.261Z,25.80
2022-08-26T11:58:04.828Z,25.90
2022-08-26T12:00:48.950Z,25.90
2022-08-26T12:03:23.583Z,26.00
2022-08-26T12:05:52.686Z,26.00
2022-08-26T12:08:28.455Z,26.00
2022-08-26T12:11:04.630Z,26.00
2022-08-26T12:13:36.811Z,26.10
2022-08-26T12:16:05.765Z,26.10
2022-08-26T12:18:47.119Z,26.00
2022-08-26T12:21:19.980Z,25.90
2022-08-26T12:23:51.354Z,25.70
2022-08-26T12:26:29.403Z,25.60
2022-08-26T12:29:28.580Z,25.70
2022-08-26T12:32:18.546Z,26.00
2022-08-26T12:34:49.050Z,26.30
2022-08-26T12:37:16.223Z,26.60
2022-08-26T12:39:46.223Z,26.70
2022-08-26T12:42:12.942Z,26.80
2022-08-26T12:45:09.418Z,26.70
2022-08-26T12:47:44.115Z,26.70
2022-08-26T12:50:30.969Z,26.90
2022-08-26T12:53:16.131Z,27.20
2022-08-26T12:55:48.259Z,27.30
2022-08-26T12:58:35.338Z,27.60
2022-08-26T13:01:06.004Z,27.80
2022-08-26T13:03:38.946Z,28.10
2022-08-26T13:06:20.631Z,27.80
2022-08-26T13:08:51.137Z,27.80
2022-08-26T13:11:26.269Z,27.70
2022-08-26T13:14:06.995Z,27.80
2022-08-26T13:16:37.468Z,28.10
2022-08-26T13:19:11.888Z,28.40
2022-08-26T13:21:44.691Z,27.90
2022-08-26T13:24:14.208Z,27.60
2022-08-26T13:26:43.125Z,27.50
2022-08-26T13:29:10.670Z,27.40
2022-08-26T13:31:40.149Z,27.50
2022-08-26T13:34:09.316Z,27.40
2022-08-26T13:36:48.078Z,27.30
2022-08-26T13:39:15.372Z,27.20
2022-08-26T13:41:43.274Z,26.90
2022-08-26T13:44:13.594Z,26.70
2022-08-26T13:46:41.015Z,26.60
2022-08-26T13:49:08.215Z,26.30
2022-08-26T13:51:40.593Z,26.40
2022-08-26T13:54:07.951Z,26.40
2022-08-26T13:56:35.868Z,26.40
2022-08-26T13:59:03.154Z,26.40
2022-08-26T14:01:33.972Z,26.40
2022-08-26T14:04:09.703Z,26.10
2022-08-26T14:06:39.613Z,26.20
2022-08-26T14:09:06.414Z,26.20
2022-08-26T14:11:37.290Z,26.20
2022-08-26T14:14:20.102Z,26.30
2022-08-26T14:16:59.046Z,26.40
2022-08-26T14:19:28.780Z,26.40
2022-08-26T14:21:56.632Z,26.00
2022-08-26T14:24:24.016Z,25.70
2022-08-26T14:26:50.960Z,25.80
2022-08-26T14:29:17.772Z,26.00
2022-08-26T14:31:45.033Z,26.00
2022-08-26T14:34:18.432Z,26.00
2022-08-26T14:36:45.436Z,26.00
2022-08-26T14:39:18.375Z,25.80
2022-08-26T14:41:55.027Z,25.80
2022-08-26T14:44:30.553Z,26.00
2022-08-26T14:46:59.647Z,26.10
2022-08-26T14:49:27.423Z,26.50
2022-08-26T14:51:54.719Z,26.80
2022-08-26T14:54:24.157Z,26.80
2022-08-26T14:57:03.823Z,26.70
2022-08-26T14:59:43.340Z,26.90
2022-08-26T15:02:32.847Z,27.20
2022-08-26T15:05:01.198Z,27.20
2022-08-26T15:07:28.272Z,27.40
2022-08-26T15:09:58.431Z,27.70
2022-08-26T15:12:25.266Z,27.80
2022-08-26T15:14:58.577Z,27.70
2022-08-26T15:17:26.230Z,27.70
2022-08-26T15:19:53.068Z,28.10
2022-08-26T15:22:20.131Z,28.20
2022-08-26T15:24:53.677Z,28.20
2022-08-26T15:27:20.792Z,28.10
2022-08-26T15:29:47.795Z,27.50
2022-08-26T15:32:14.595Z,27.00
2022-08-26T15:34:46.610Z,26.80
2022-08-26T15:37:13.585Z,26.80
2022-08-26T15:39:42.889Z,26.90
2022-08-26T15:42:11.042Z,26.70
2022-08-26T15:47:25.698Z,26.60
2022-08-26T15:49:52.821Z,26.80
2022-08-26T15:52:26.081Z,26.60
2022-08-26T15:54:56.226Z,26.40
2022-08-26T15:57:26.085Z,26.10
2022-08-26T15:59:56.357Z,25.80
2022-08-26T16:02:23.145Z,25.50
2022-08-26T16:04:53.066Z,25.40
2022-08-26T16:07:21.656Z,25.10
2022-08-26T16:09:52.049Z,25.10
2022-08-26T16:12:21.334Z,25.00
2022-08-26T16:14:52.708Z,24.80
2022-08-26T16:17:22.661Z,24.60
2022-08-26T16:19:49.785Z,24.50
2022-08-26T16:22:19.660Z,24.30
2022-08-26T16:24:46.936Z,24.20
2022-08-26T16:27:16.848Z,24.20
2022-08-26T16:29:43.927Z,24.20
2022-08-26T16:32:10.986Z,24.10
2022-08-26T16:34:38.081Z,24.00
2022-08-26T16:37:14.033Z,23.90
2022-08-26T16:39:45.168Z,23.80
2022-08-26T16:42:12.196Z,23.80
2022-08-26T16:44:44.811Z,23.80
2022-08-26T16:47:18.772Z,23.80
2022-08-26T16:49:51.255Z,23.70
2022-08-26T16:52:18.627Z,23.60
2022-08-26T16:54:45.592Z,23.40
2022-08-26T16:57:14.205Z,23.30
2022-08-26T16:59:41.826Z,23.20
2022-08-26T17:02:10.607Z,23.10
2022-08-26T17:04:38.392Z,22.90
2022-08-26T17:07:10.977Z,22.60
2022-08-26T17:09:38.109Z,22.20
2022-08-26T17:12:08.405Z,22.00
2022-08-26T17:14:38.233Z,21.70
2022-08-26T17:17:06.169Z,21.20
2022-08-26T17:19:39.052Z,20.90
2022-08-26T17:22:11.805Z,20.50
2022-08-26T17:24:39.346Z,20.20
2022-08-26T17:27:06.495Z,19.90
2022-08-26T17:29:36.668Z,19.50
2022-08-26T17:32:04.072Z,18.90
2022-08-26T17:34:34.482Z,18.20
2022-08-26T17:37:04.674Z,17.70
2022-08-26T17:39:34.479Z,17.30
2022-08-26T17:42:01.253Z,17.10
2022-08-26T17:44:28.294Z,16.90
2022-08-26T17:46:55.408Z,16.70
2022-08-26T17:49:24.757Z,16.60
2022-08-26T17:51:51.518Z,16.50
2022-08-26T17:54:21.001Z,16.40
2022-08-26T17:56:47.842Z,16.40
2022-08-26T17:59:15.734Z,16.40
2022-08-26T18:01:45.928Z,16.50
2022-08-26T18:04:14.883Z,16.50
2022-08-26T18:06:43.492Z,16.50
2022-08-26T18:09:10.550Z,16.50
2022-08-26T18:11:40.669Z,16.40
2022-08-26T18:14:07.969Z,16.40
2022-08-26T18:16:38.369Z,16.40
2022-08-26T18:19:06.349Z,16.40
2022-08-26T18:21:33.456Z,16.30
2022-08-26T18:24:04.400Z,16.40
2022-08-26T18:26:34.967Z,16.40
2022-08-26T18:29:05.440Z,16.40
2022-08-26T18:31:33.527Z,16.40
2022-08-26T18:34:10.951Z,16.40
2022-08-26T18:36:44.224Z,16.50
2022-08-26T18:39:12.836Z,16.40
2022-08-26T18:41:44.902Z,16.50
2022-08-26T18:44:14.125Z,16.50
2022-08-26T18:46:41.624Z,16.40
2022-08-26T18:49:09.969Z,16.40
2022-08-26T18:51:38.178Z,16.50
2022-08-26T18:54:07.311Z,16.50
2022-08-26T18:56:36.144Z,16.40
2022-08-26T18:59:04.948Z,16.40
2022-08-26T19:01:32.682Z,16.50
2022-08-26T19:04:01.844Z,16.50
2022-08-26T19:06:31.907Z,16.50
2022-08-26T19:08:59.992Z,16.50
2022-08-26T19:11:32.408Z,16.50
2022-08-26T19:14:07.592Z,16.40
2022-08-26T19:16:37.648Z,16.40
2022-08-26T19:19:07.937Z,16.40
2022-08-26T19:21:41.641Z,16.40
2022-08-26T19:24:15.841Z,16.30
2022-08-26T19:26:45.405Z,16.40
2022-08-26T19:29:13.808Z,16.30
2022-08-26T19:31:42.425Z,16.40
2022-08-26T19:34:11.199Z,16.40
2022-08-26T19:36:44.765Z,16.50
2022-08-26T19:39:15.991Z,16.50
2022-08-26T19:41:43.170Z,16.50
2022-08-26T19:44:35.333Z,16.40
2022-08-26T19:47:03.767Z,16.30
2022-08-26T19:49:31.374Z,16.30
2022-08-26T19:51:58.728Z,16.30
2022-08-26T19:57:06.772Z,16.20
2022-08-26T19:59:36.700Z,16.30
2022-08-26T20:02:08.634Z,16.30
2022-08-26T20:04:41.915Z,16.30
2022-08-26T20:07:10.431Z,16.20
2022-08-26T20:09:38.800Z,16.20
2022-08-26T20:12:06.999Z,16.20
2022-08-26T20:14:35.534Z,16.20
2022-08-26T20:17:03.987Z,16.20
2022-08-26T20:19:49.586Z,16.20
2022-08-26T20:22:19.523Z,16.20
2022-08-26T20:24:47.634Z,16.20
2022-08-26T20:27:18.090Z,16.20
2022-08-26T20:29:48.338Z,16.20
2022-08-26T20:32:15.152Z,16.20
2022-08-26T20:34:42.743Z,16.20
2022-08-26T20:37:11.126Z,16.30
2022-08-26T20:39:38.038Z,16.30
2022-08-26T20:42:20.055Z,16.30
2022-08-26T20:44:54.749Z,16.30
2022-08-26T20:47:22.274Z,16.40
2022-08-26T20:49:52.525Z,16.40
2022-08-26T20:52:20.025Z,16.30
2022-08-26T20:54:47.212Z,16.30
2022-08-26T20:57:14.633Z,16.20
2022-08-26T20:59:44.524Z,16.20
2022-08-26T21:02:20.767Z,16.10
2022-08-26T21:04:49.948Z,16.10
2022-08-26T21:07:16.771Z,16.10
2022-08-26T21:09:44.845Z,16.10
2022-08-26T21:12:12.600Z,16.10
2022-08-26T21:14:39.600Z,16.10
2022-08-26T21:17:06.427Z,16.10
2022-08-26T21:19:36.169Z,16.10
2022-08-26T21:22:03.224Z,16.20
2022-08-26T21:24:30.185Z,16.20
2022-08-26T21:26:57.138Z,16.30
2022-08-26T21:29:26.468Z,16.30
2022-08-26T21:31:53.210Z,16.20
2022-08-26T21:34:20.713Z,16.20
2022-08-26T21:36:55.845Z,16.30
2022-08-26T21:39:23.033Z,16.30
2022-08-26T21:41:50.089Z,16.30
2022-08-26T21:44:17.813Z,16.30
2022-08-26T21:46:45.896Z,16.30
2022-08-26T21:49:16.222Z,16.30
2022-08-26T21:51:45.753Z,16.30
2022-08-26T21:54:13.637Z,16.40
2022-08-26T21:56:46.874Z,16.30
2022-08-26T21:59:16.354Z,16.30
2022-08-26T22:01:45.849Z,16.30
2022-08-26T22:04:12.877Z,16.30
2022-08-26T22:06:46.590Z,16.30
2022-08-26T22:09:15.767Z,16.30
2022-08-26T22:11:43.366Z,16.30
2022-08-26T22:14:11.415Z,16.20
2022-08-26T22:16:38.517Z,16.20
2022-08-26T22:19:13.416Z,16.10
2022-08-26T22:21:45.525Z,16.20
2022-08-26T22:24:12.777Z,16.10
2022-08-26T22:26:39.650Z,16.20
2022-08-26T22:29:10.137Z,16.20
2022-08-26T22:31:40.561Z,16.20
2022-08-26T22:34:13.493Z,16.10
2022-08-26T22:36:44.162Z,16.10
2022-08-26T22:39:16.689Z,16.10
2022-08-26T22:41:44.980Z,16.10
2022-08-26T22:44:18.923Z,16.20
2022-08-26T22:46:46.700Z,16.20
2022-08-26T22:49:19.333Z,16.20
2022-08-26T22:51:47.028Z,16.20
2022-08-26T22:54:14.722Z,16.20
2022-08-26T22:56:42.320Z,16.20
2022-08-26T22:59:11.156Z,16.30
2022-08-26T23:01:42.370Z,16.30
2022-08-26T23:04:09.384Z,16.20
2022-08-26T23:06:38.304Z,16.20
2022-08-26T23:09:06.704Z,16.30
2022-08-26T23:11:34.595Z,16.20
2022-08-26T23:14:02.289Z,16.10
2022-08-26T23:16:37.929Z,16.10
2022-08-26T23:19:06.893Z,16.10
2022-08-26T23:21:36.399Z,16.00
2022-08-26T23:24:03.731Z,16.00
2022-08-26T23:26:32.018Z,16.00
2022-08-26T23:28:59.688Z,15.90
2022-08-26T23:31:37.097Z,16.00
2022-08-26T23:34:23.057Z,16.00
2022-08-26T23:36:52.593Z,16.00
2022-08-26T23:39:23.253Z,16.00
2022-08-26T23:41:50.219Z,16.00
2022-08-26T23:44:21.011Z,16.00
2022-08-26T23:46:55.404Z,16.00
2022-08-26T23:49:22.915Z,16.00
2022-08-26T23:52:12.345Z,16.00
2022-08-26T23:54:48.853Z,16.10
2022-08-26T23:57:18.741Z,16.10
2022-08-26T23:59:47.055Z,16.00
